sensor_id;sensor_type;location;lat;lon;timestamp;pressure;altitude;pressure_sealevel;temperature;humidity
56721;BME280;53183;47.412;18.884;2023-03-16T11:07:47;99696.72;;;10.26;39.38
56721;BME280;53183;47.412;18.884;2023-03-16T11:10:36;99698.09;;;10.16;38.02
56721;BME280;53183;47.412;18.884;2023-03-16T11:13:20;99691.50;;;10.25;37.42
56721;BME280;53183;47.412;18.884;2023-03-16T11:15:54;99695.87;;;10.26;35.73
56721;BME280;53183;47.412;18.884;2023-03-16T11:18:34;99692.00;;;10.33;36.69
56721;BME280;53183;47.412;18.884;2023-03-16T11:21:09;99688.37;;;10.17;36.26
56721;BME280;53183;47.412;18.884;2023-03-16T11:23:44;99686.03;;;10.29;35.28
56721;BME280;53183;47.412;18.884;2023-03-16T11:26:29;99676.41;;;10.09;35.20
56721;BME280;53183;47.412;18.884;2023-03-16T11:29:04;99685.22;;;9.53;34.76
56721;BME280;53183;47.412;18.884;2023-03-16T11:34:16;99679.53;;;9.62;35.29
56721;BME280;53183;47.412;18.884;2023-03-16T11:37:02;99679.63;;;9.61;34.95
56721;BME280;53183;47.412;18.884;2023-03-16T11:40:53;99675.38;;;9.95;34.71
56721;BME280;53183;47.412;18.884;2023-03-16T11:48:40;99669.09;;;10.68;33.41
56721;BME280;53183;47.412;18.884;2023-03-16T11:51:34;99669.16;;;10.32;33.04
56721;BME280;53183;47.412;18.884;2023-03-16T11:54:28;99669.72;;;10.39;32.15
56721;BME280;53183;47.412;18.884;2023-03-16T12:10:14;99661.22;;;9.59;30.88
56721;BME280;53183;47.412;18.884;2023-03-16T12:13:25;99659.28;;;9.63;30.70
56721;BME280;53183;47.412;18.884;2023-03-16T12:18:51;99639.56;;;9.89;30.25
56721;BME280;53183;47.412;18.884;2023-03-16T12:21:24;99644.56;;;9.76;29.60
56721;BME280;53183;47.412;18.884;2023-03-16T12:23:57;99660.97;;;9.83;29.75
56721;BME280;53183;47.412;18.884;2023-03-16T12:26:28;99649.53;;;10.01;30.32
56721;BME280;53183;47.412;18.884;2023-03-16T12:29:02;99655.53;;;10.22;29.30
56721;BME280;53183;47.412;18.884;2023-03-16T12:31:52;99645.06;;;10.21;29.48
56721;BME280;53183;47.412;18.884;2023-03-16T12:34:30;99658.00;;;10.27;29.20
56721;BME280;53183;47.412;18.884;2023-03-16T12:37:08;99644.50;;;10.14;28.99
56721;BME280;53183;47.412;18.884;2023-03-16T12:40:07;99653.88;;;10.20;29.44
56721;BME280;53183;47.412;18.884;2023-03-16T12:45:42;99656.66;;;9.99;29.39
56721;BME280;53183;47.412;18.884;2023-03-16T12:48:19;99652.25;;;10.53;29.81
56721;BME280;53183;47.412;18.884;2023-03-16T12:50:56;99654.09;;;10.51;28.31
56721;BME280;53183;47.412;18.884;2023-03-16T12:56:07;99658.13;;;10.59;28.99
56721;BME280;53183;47.412;18.884;2023-03-16T12:58:44;99660.53;;;10.28;28.88
56721;BME280;53183;47.412;18.884;2023-03-16T13:01:13;99653.16;;;10.35;28.62
56721;BME280;53183;47.412;18.884;2023-03-16T13:03:43;99652.22;;;10.00;29.51
56721;BME280;53183;47.412;18.884;2023-03-16T13:06:18;99651.25;;;10.20;29.34
56721;BME280;53183;47.412;18.884;2023-03-16T13:08:51;99657.84;;;10.11;28.80
56721;BME280;53183;47.412;18.884;2023-03-16T13:11:20;99653.56;;;10.08;28.78
56721;BME280;53183;47.412;18.884;2023-03-16T13:14:04;99655.78;;;9.81;29.37
56721;BME280;53183;47.412;18.884;2023-03-16T13:16:39;99641.94;;;9.76;29.36
56721;BME280;53183;47.412;18.884;2023-03-16T13:19:27;99647.59;;;9.69;29.50
56721;BME280;53183;47.412;18.884;2023-03-16T13:22:18;99644.31;;;10.00;29.66
56721;BME280;53183;47.412;18.884;2023-03-16T13:24:50;99648.69;;;10.01;29.32
56721;BME280;53183;47.412;18.884;2023-03-16T13:27:26;99648.28;;;9.91;28.42
56721;BME280;53183;47.412;18.884;2023-03-16T13:29:57;99650.28;;;10.03;28.88
56721;BME280;53183;47.412;18.884;2023-03-16T13:32:29;99648.56;;;9.85;28.99
56721;BME280;53183;47.412;18.884;2023-03-16T13:34:59;99644.97;;;9.86;29.09
56721;BME280;53183;47.412;18.884;2023-03-16T13:37:28;99655.09;;;9.95;29.32
56721;BME280;53183;47.412;18.884;2023-03-16T13:39:58;99656.06;;;9.75;29.41
56721;BME280;53183;47.412;18.884;2023-03-16T13:42:30;99649.78;;;9.78;29.51
56721;BME280;53183;47.412;18.884;2023-03-16T13:45:09;99652.47;;;9.95;29.33
56721;BME280;53183;47.412;18.884;2023-03-16T13:47:41;99654.53;;;9.89;29.56
56721;BME280;53183;47.412;18.884;2023-03-16T13:50:11;99660.91;;;9.84;29.78
56721;BME280;53183;47.412;18.884;2023-03-16T13:52:40;99658.69;;;9.94;29.85
56721;BME280;53183;47.412;18.884;2023-03-16T13:55:15;99654.66;;;10.04;28.74
56721;BME280;53183;47.412;18.884;2023-03-16T13:57:44;99660.13;;;9.82;28.50
56721;BME280;53183;47.412;18.884;2023-03-16T14:02:46;99647.03;;;9.43;29.42
56721;BME280;53183;47.412;18.884;2023-03-16T14:05:21;99659.84;;;9.70;29.46
56721;BME280;53183;47.412;18.884;2023-03-16T14:07:51;99653.28;;;9.78;29.16
56721;BME280;53183;47.412;18.884;2023-03-16T14:10:19;99647.56;;;9.88;29.39
56721;BME280;53183;47.412;18.884;2023-03-16T14:13:05;99652.91;;;9.86;28.84
56721;BME280;53183;47.412;18.884;2023-03-16T14:15:35;99654.25;;;9.95;29.24
56721;BME280;53183;47.412;18.884;2023-03-16T14:18:15;99648.72;;;9.82;29.27
56721;BME280;53183;47.412;18.884;2023-03-16T14:20:54;99659.41;;;9.60;28.53
56721;BME280;53183;47.412;18.884;2023-03-16T14:23:29;99655.44;;;9.51;28.65
56721;BME280;53183;47.412;18.884;2023-03-16T14:25:57;99656.81;;;9.41;28.68
56721;BME280;53183;47.412;18.884;2023-03-16T14:28:29;99654.28;;;9.57;28.60
56721;BME280;53183;47.412;18.884;2023-03-16T14:31:11;99660.66;;;9.53;28.50
56721;BME280;53183;47.412;18.884;2023-03-16T14:33:42;99658.53;;;9.61;28.27
56721;BME280;53183;47.412;18.884;2023-03-16T14:36:16;99664.78;;;9.77;28.00
56721;BME280;53183;47.412;18.884;2023-03-16T14:38:46;99656.34;;;9.69;28.54
56721;BME280;53183;47.412;18.884;2023-03-16T14:44:02;99664.53;;;9.82;28.35
56721;BME280;53183;47.412;18.884;2023-03-16T14:46:37;99649.09;;;9.55;28.50
56721;BME280;53183;47.412;18.884;2023-03-16T14:49:25;99661.78;;;9.66;28.34
56721;BME280;53183;47.412;18.884;2023-03-16T14:51:58;99661.28;;;9.58;29.32
56721;BME280;53183;47.412;18.884;2023-03-16T14:54:26;99672.97;;;9.52;28.97
56721;BME280;53183;47.412;18.884;2023-03-16T14:57:00;99667.06;;;9.47;29.13
56721;BME280;53183;47.412;18.884;2023-03-16T14:59:27;99672.19;;;9.50;29.02
56721;BME280;53183;47.412;18.884;2023-03-16T15:01:55;99682.25;;;9.42;29.21
56721;BME280;53183;47.412;18.884;2023-03-16T15:04:27;99675.28;;;9.41;29.43
56721;BME280;53183;47.412;18.884;2023-03-16T15:06:57;99674.69;;;9.53;29.61
56721;BME280;53183;47.412;18.884;2023-03-16T15:09:40;99671.56;;;9.45;29.62
56721;BME280;53183;47.412;18.884;2023-03-16T15:12:17;99670.97;;;9.20;28.96
56721;BME280;53183;47.412;18.884;2023-03-16T15:14:46;99674.41;;;9.22;29.10
56721;BME280;53183;47.412;18.884;2023-03-16T15:17:33;99676.78;;;9.07;29.04
56721;BME280;53183;47.412;18.884;2023-03-16T15:20:00;99676.81;;;8.87;29.13
56721;BME280;53183;47.412;18.884;2023-03-16T15:22:32;99675.28;;;9.02;29.70
56721;BME280;53183;47.412;18.884;2023-03-16T15:25:34;99683.47;;;8.75;30.19
56721;BME280;53183;47.412;18.884;2023-03-16T15:28:24;99679.97;;;8.75;30.48
56721;BME280;53183;47.412;18.884;2023-03-16T15:30:56;99679.44;;;8.87;30.69
56721;BME280;53183;47.412;18.884;2023-03-16T15:33:24;99681.59;;;8.98;30.55
56721;BME280;53183;47.412;18.884;2023-03-16T15:35:55;99684.84;;;8.84;30.99
56721;BME280;53183;47.412;18.884;2023-03-16T15:38:28;99688.28;;;8.86;31.35
56721;BME280;53183;47.412;18.884;2023-03-16T15:40:58;99700.12;;;8.96;30.69
56721;BME280;53183;47.412;18.884;2023-03-16T15:43:27;99689.37;;;9.01;29.47
56721;BME280;53183;47.412;18.884;2023-03-16T15:45:56;99693.78;;;9.00;30.16
56721;BME280;53183;47.412;18.884;2023-03-16T15:48:23;99705.53;;;8.93;30.13
56721;BME280;53183;47.412;18.884;2023-03-16T15:50:52;99703.16;;;8.87;30.73
56721;BME280;53183;47.412;18.884;2023-03-16T15:53:36;99699.00;;;8.61;31.44
56721;BME280;53183;47.412;18.884;2023-03-16T15:56:15;99699.13;;;8.58;30.69
56721;BME280;53183;47.412;18.884;2023-03-16T15:58:44;99703.09;;;8.48;30.74
56721;BME280;53183;47.412;18.884;2023-03-16T16:01:20;99704.31;;;8.39;30.40
56721;BME280;53183;47.412;18.884;2023-03-16T16:03:51;99707.00;;;8.37;30.90
56721;BME280;53183;47.412;18.884;2023-03-16T16:06:20;99713.59;;;8.26;31.36
56721;BME280;53183;47.412;18.884;2023-03-16T16:08:48;99711.41;;;8.15;30.73
56721;BME280;53183;47.412;18.884;2023-03-16T16:11:20;99723.84;;;8.11;30.54
56721;BME280;53183;47.412;18.884;2023-03-16T16:13:48;99719.87;;;8.01;30.64
56721;BME280;53183;47.412;18.884;2023-03-16T16:16:17;99722.97;;;7.89;30.86
56721;BME280;53183;47.412;18.884;2023-03-16T16:18:46;99721.31;;;7.86;31.23
56721;BME280;53183;47.412;18.884;2023-03-16T16:21:20;99725.31;;;7.73;31.37
56721;BME280;53183;47.412;18.884;2023-03-16T16:23:51;99727.22;;;7.69;31.32
56721;BME280;53183;47.412;18.884;2023-03-16T16:26:31;99734.91;;;7.52;31.98
56721;BME280;53183;47.412;18.884;2023-03-16T16:29:20;99738.09;;;7.37;32.28
56721;BME280;53183;47.412;18.884;2023-03-16T16:31:48;99742.25;;;7.19;32.52
56721;BME280;53183;47.412;18.884;2023-03-16T16:34:20;99745.62;;;7.22;32.49
56721;BME280;53183;47.412;18.884;2023-03-16T16:36:50;99748.44;;;7.18;32.76
56721;BME280;53183;47.412;18.884;2023-03-16T16:39:17;99759.63;;;7.23;32.50
56721;BME280;53183;47.412;18.884;2023-03-16T16:41:44;99763.72;;;7.07;32.83
56721;BME280;53183;47.412;18.884;2023-03-16T16:44:19;99768.41;;;6.97;33.15
56721;BME280;53183;47.412;18.884;2023-03-16T16:46:47;99768.69;;;6.89;33.78
56721;BME280;53183;47.412;18.884;2023-03-16T16:49:18;99777.94;;;6.74;34.25
56721;BME280;53183;47.412;18.884;2023-03-16T16:51:46;99781.69;;;6.67;34.63
56721;BME280;53183;47.412;18.884;2023-03-16T16:54:16;99774.00;;;6.61;34.81
56721;BME280;53183;47.412;18.884;2023-03-16T16:56:45;99785.50;;;6.58;35.24
56721;BME280;53183;47.412;18.884;2023-03-16T16:59:30;99782.53;;;6.41;35.64
56721;BME280;53183;47.412;18.884;2023-03-16T17:02:00;99785.03;;;6.46;35.92
56721;BME280;53183;47.412;18.884;2023-03-16T17:04:29;99791.31;;;6.40;36.25
56721;BME280;53183;47.412;18.884;2023-03-16T17:06:58;99791.69;;;6.28;36.63
56721;BME280;53183;47.412;18.884;2023-03-16T17:09:28;99797.34;;;6.16;36.99
56721;BME280;53183;47.412;18.884;2023-03-16T17:11:58;99796.47;;;6.15;37.20
56721;BME280;53183;47.412;18.884;2023-03-16T17:14:27;99801.09;;;6.07;37.49
56721;BME280;53183;47.412;18.884;2023-03-16T17:16:55;99800.47;;;5.99;37.67
56721;BME280;53183;47.412;18.884;2023-03-16T17:19:26;99805.22;;;5.86;37.87
56721;BME280;53183;47.412;18.884;2023-03-16T17:21:55;99805.47;;;5.77;37.92
56721;BME280;53183;47.412;18.884;2023-03-16T17:24:23;99804.78;;;5.70;38.37
56721;BME280;53183;47.412;18.884;2023-03-16T17:26:53;99814.69;;;5.60;38.78
56721;BME280;53183;47.412;18.884;2023-03-16T17:29:23;99813.38;;;5.75;38.37
56721;BME280;53183;47.412;18.884;2023-03-16T17:31:51;99809.47;;;5.88;38.24
56721;BME280;53183;47.412;18.884;2023-03-16T17:34:24;99812.03;;;5.93;38.28
56721;BME280;53183;47.412;18.884;2023-03-16T17:36:56;99812.88;;;5.92;38.39
56721;BME280;53183;47.412;18.884;2023-03-16T17:39:28;99810.19;;;5.95;38.64
56721;BME280;53183;47.412;18.884;2023-03-16T17:42:19;99821.13;;;5.80;39.13
56721;BME280;53183;47.412;18.884;2023-03-16T17:44:47;99822.50;;;5.62;39.34
56721;BME280;53183;47.412;18.884;2023-03-16T17:49:43;99832.91;;;5.34;40.30
56721;BME280;53183;47.412;18.884;2023-03-16T17:52:16;99834.69;;;5.32;40.47
56721;BME280;53183;47.412;18.884;2023-03-16T17:54:48;99835.69;;;5.26;40.88
56721;BME280;53183;47.412;18.884;2023-03-16T17:57:18;99835.25;;;5.10;41.40
56721;BME280;53183;47.412;18.884;2023-03-16T17:59:47;99832.87;;;5.01;41.57
56721;BME280;53183;47.412;18.884;2023-03-16T18:02:48;99838.91;;;5.03;41.74
56721;BME280;53183;47.412;18.884;2023-03-16T18:05:19;99836.72;;;4.86;41.94
56721;BME280;53183;47.412;18.884;2023-03-16T18:07:47;99847.28;;;4.83;42.35
56721;BME280;53183;47.412;18.884;2023-03-16T18:10:24;99843.88;;;4.80;42.38
56721;BME280;53183;47.412;18.884;2023-03-16T18:12:56;99842.38;;;4.71;42.48
56721;BME280;53183;47.412;18.884;2023-03-16T18:15:27;99850.63;;;4.54;43.00
56721;BME280;53183;47.412;18.884;2023-03-16T18:17:56;99852.47;;;4.49;43.47
56721;BME280;53183;47.412;18.884;2023-03-16T18:20:29;99861.63;;;4.30;44.21
56721;BME280;53183;47.412;18.884;2023-03-16T18:23:01;99864.44;;;4.22;44.35
56721;BME280;53183;47.412;18.884;2023-03-16T18:25:36;99866.50;;;4.06;44.70
56721;BME280;53183;47.412;18.884;2023-03-16T18:28:09;99869.88;;;4.11;45.16
56721;BME280;53183;47.412;18.884;2023-03-16T18:30:38;99876.06;;;4.07;45.33
56721;BME280;53183;47.412;18.884;2023-03-16T18:33:21;99872.88;;;3.93;45.74
56721;BME280;53183;47.412;18.884;2023-03-16T18:35:50;99864.44;;;3.80;45.79
56721;BME280;53183;47.412;18.884;2023-03-16T18:38:36;99873.28;;;3.73;46.11
56721;BME280;53183;47.412;18.884;2023-03-16T18:41:21;99866.47;;;3.66;46.35
56721;BME280;53183;47.412;18.884;2023-03-16T18:43:52;99869.13;;;3.63;46.64
56721;BME280;53183;47.412;18.884;2023-03-16T18:46:31;99869.25;;;3.55;46.96
56721;BME280;53183;47.412;18.884;2023-03-16T18:51:35;99873.81;;;3.45;47.36
56721;BME280;53183;47.412;18.884;2023-03-16T18:54:15;99883.50;;;3.39;47.76
56721;BME280;53183;47.412;18.884;2023-03-16T18:56:46;99885.34;;;3.34;48.07
56721;BME280;53183;47.412;18.884;2023-03-16T18:59:15;99893.25;;;3.29;48.19
56721;BME280;53183;47.412;18.884;2023-03-16T19:01:43;99893.28;;;3.27;48.04
56721;BME280;53183;47.412;18.884;2023-03-16T19:04:21;99901.06;;;3.31;47.82
56721;BME280;53183;47.412;18.884;2023-03-16T19:06:51;99898.50;;;3.27;47.98
56721;BME280;53183;47.412;18.884;2023-03-16T19:09:25;99901.97;;;3.29;48.21
56721;BME280;53183;47.412;18.884;2023-03-16T19:11:54;99899.38;;;3.28;48.07
56721;BME280;53183;47.412;18.884;2023-03-16T19:14:31;99909.91;;;3.22;48.38
56721;BME280;53183;47.412;18.884;2023-03-16T19:17:00;99910.88;;;3.18;48.44
56721;BME280;53183;47.412;18.884;2023-03-16T19:19:27;99913.59;;;3.12;48.48
56721;BME280;53183;47.412;18.884;2023-03-16T19:22:04;99940.81;;;3.49;48.15
56721;BME280;53183;47.412;18.884;2023-03-16T19:24:46;99940.44;;;3.69;46.41
56721;BME280;53183;47.412;18.884;2023-03-16T19:29:48;99950.44;;;3.94;44.56
56721;BME280;53183;47.412;18.884;2023-03-16T19:32:19;99955.25;;;4.15;43.04
56721;BME280;53183;47.412;18.884;2023-03-16T19:34:47;99958.66;;;4.19;42.58
56721;BME280;53183;47.412;18.884;2023-03-16T19:37:17;99956.28;;;4.08;42.59
56721;BME280;53183;47.412;18.884;2023-03-16T19:39:45;99970.03;;;4.16;42.24
56721;BME280;53183;47.412;18.884;2023-03-16T19:42:27;99964.97;;;4.09;42.57
56721;BME280;53183;47.412;18.884;2023-03-16T19:44:55;99966.84;;;4.00;42.94
56721;BME280;53183;47.412;18.884;2023-03-16T19:47:28;99978.34;;;3.93;43.10
56721;BME280;53183;47.412;18.884;2023-03-16T19:49:57;99982.88;;;3.84;43.25
56721;BME280;53183;47.412;18.884;2023-03-16T19:52:26;99982.00;;;3.83;43.31
56721;BME280;53183;47.412;18.884;2023-03-16T19:54:54;99981.09;;;3.86;43.17
56721;BME280;53183;47.412;18.884;2023-03-16T19:57:21;99982.16;;;3.74;43.52
56721;BME280;53183;47.412;18.884;2023-03-16T19:59:52;99978.94;;;3.60;44.22
56721;BME280;53183;47.412;18.884;2023-03-16T20:02:26;99985.09;;;3.57;44.30
56721;BME280;53183;47.412;18.884;2023-03-16T20:04:54;99980.97;;;3.44;44.91
56721;BME280;53183;47.412;18.884;2023-03-16T20:07:22;99993.22;;;3.39;44.97
56721;BME280;53183;47.412;18.884;2023-03-16T20:09:50;99999.50;;;3.28;45.17
56721;BME280;53183;47.412;18.884;2023-03-16T20:12:23;100003.09;;;3.21;45.44
56721;BME280;53183;47.412;18.884;2023-03-16T20:14:51;99997.06;;;3.18;45.53
56721;BME280;53183;47.412;18.884;2023-03-16T20:17:22;99996.25;;;3.14;45.75
56721;BME280;53183;47.412;18.884;2023-03-16T20:19:50;99991.88;;;3.16;45.98
56721;BME280;53183;47.412;18.884;2023-03-16T20:22:27;99999.66;;;3.18;46.46
56721;BME280;53183;47.412;18.884;2023-03-16T20:24:55;99999.75;;;3.12;46.66
56721;BME280;53183;47.412;18.884;2023-03-16T20:27:25;99998.84;;;3.14;47.05
56721;BME280;53183;47.412;18.884;2023-03-16T20:29:53;100005.78;;;3.17;46.79
56721;BME280;53183;47.412;18.884;2023-03-16T20:32:24;100000.66;;;3.11;47.06
56721;BME280;53183;47.412;18.884;2023-03-16T20:34:53;100004.13;;;3.13;47.03
56721;BME280;53183;47.412;18.884;2023-03-16T20:37:22;100003.41;;;3.01;47.32
56721;BME280;53183;47.412;18.884;2023-03-16T20:39:51;100009.59;;;2.94;47.42
56721;BME280;53183;47.412;18.884;2023-03-16T20:42:26;100015.81;;;2.86;48.03
56721;BME280;53183;47.412;18.884;2023-03-16T20:44:55;100015.09;;;2.74;48.02
56721;BME280;53183;47.412;18.884;2023-03-16T20:47:24;100008.25;;;2.66;48.19
56721;BME280;53183;47.412;18.884;2023-03-16T20:49:53;100014.44;;;2.60;48.74
56721;BME280;53183;47.412;18.884;2023-03-16T20:52:25;100009.28;;;2.54;48.87
56721;BME280;53183;47.412;18.884;2023-03-16T20:54:56;100009.22;;;2.58;48.84
56721;BME280;53183;47.412;18.884;2023-03-16T20:57:26;100011.91;;;2.54;49.00
56721;BME280;53183;47.412;18.884;2023-03-16T20:59:54;100017.13;;;2.52;48.80
56721;BME280;53183;47.412;18.884;2023-03-16T21:02:31;100015.34;;;2.54;48.90
56721;BME280;53183;47.412;18.884;2023-03-16T21:05:02;100019.72;;;2.52;49.18
56721;BME280;53183;47.412;18.884;2023-03-16T21:07:30;100023.25;;;2.47;49.17
56721;BME280;53183;47.412;18.884;2023-03-16T21:09:57;100017.22;;;2.43;49.34
56721;BME280;53183;47.412;18.884;2023-03-16T21:12:30;100029.31;;;2.53;49.24
56721;BME280;53183;47.412;18.884;2023-03-16T21:14:59;100026.75;;;2.46;49.32
56721;BME280;53183;47.412;18.884;2023-03-16T21:17:33;100031.13;;;2.45;50.11
56721;BME280;53183;47.412;18.884;2023-03-16T21:20:13;100032.12;;;2.35;50.11
56721;BME280;53183;47.412;18.884;2023-03-16T21:22:42;100031.31;;;2.27;50.14
56721;BME280;53183;47.412;18.884;2023-03-16T21:25:22;100027.88;;;2.25;49.96
56721;BME280;53183;47.412;18.884;2023-03-16T21:27:51;100036.63;;;2.21;50.32
56721;BME280;53183;47.412;18.884;2023-03-16T21:30:30;100040.19;;;2.12;50.52
56721;BME280;53183;47.412;18.884;2023-03-16T21:32:59;100039.38;;;2.08;50.68
56721;BME280;53183;47.412;18.884;2023-03-16T21:35:33;100042.88;;;2.07;50.73
56721;BME280;53183;47.412;18.884;2023-03-16T21:38:11;100050.78;;;1.98;51.30
56721;BME280;53183;47.412;18.884;2023-03-16T21:40:39;100051.72;;;1.91;51.35
56721;BME280;53183;47.412;18.884;2023-03-16T21:43:08;100044.81;;;1.85;52.02
56721;BME280;53183;47.412;18.884;2023-03-16T21:45:38;100047.44;;;1.82;52.54
56721;BME280;53183;47.412;18.884;2023-03-16T21:48:18;100046.59;;;1.82;52.44
56721;BME280;53183;47.412;18.884;2023-03-16T21:50:47;100052.72;;;1.75;52.54
56721;BME280;53183;47.412;18.884;2023-03-16T21:53:26;100044.94;;;1.72;52.71
56721;BME280;53183;47.412;18.884;2023-03-16T21:55:55;100045.88;;;1.63;53.08
56721;BME280;53183;47.412;18.884;2023-03-16T21:58:23;100045.03;;;1.58;52.94
56721;BME280;53183;47.412;18.884;2023-03-16T22:00:51;100048.59;;;1.49;53.58
56721;BME280;53183;47.412;18.884;2023-03-16T22:03:31;100051.25;;;1.43;53.85
56721;BME280;53183;47.412;18.884;2023-03-16T22:06:16;100055.59;;;1.41;53.93
56721;BME280;53183;47.412;18.884;2023-03-16T22:08:44;100059.09;;;1.38;54.88
56721;BME280;53183;47.412;18.884;2023-03-16T22:11:17;100057.34;;;1.39;54.78
56721;BME280;53183;47.412;18.884;2023-03-16T22:13:45;100054.78;;;1.31;54.79
56721;BME280;53183;47.412;18.884;2023-03-16T22:16:18;100060.94;;;1.23;55.74
56721;BME280;53183;47.412;18.884;2023-03-16T22:18:48;100061.81;;;1.20;56.76
56721;BME280;53183;47.412;18.884;2023-03-16T22:21:38;100067.00;;;1.22;57.16
56721;BME280;53183;47.412;18.884;2023-03-16T22:24:15;100062.75;;;1.13;56.72
56721;BME280;53183;47.412;18.884;2023-03-16T22:26:46;100059.31;;;1.02;57.36
56721;BME280;53183;47.412;18.884;2023-03-16T22:29:23;100055.91;;;0.95;57.52
56721;BME280;53183;47.412;18.884;2023-03-16T22:31:55;100058.50;;;0.92;58.61
56721;BME280;53183;47.412;18.884;2023-03-16T22:34:27;100061.16;;;0.84;58.18
56721;BME280;53183;47.412;18.884;2023-03-16T22:36:56;100061.22;;;0.74;58.28
56721;BME280;53183;47.412;18.884;2023-03-16T22:39:24;100059.50;;;0.68;59.02
56721;BME280;53183;47.412;18.884;2023-03-16T22:41:51;100061.25;;;0.64;59.35
56721;BME280;53183;47.412;18.884;2023-03-16T22:44:20;100058.69;;;0.60;59.60
56721;BME280;53183;47.412;18.884;2023-03-16T22:46:49;100057.84;;;0.59;59.43
56721;BME280;53183;47.412;18.884;2023-03-16T22:49:20;100058.69;;;0.55;59.46
56721;BME280;53183;47.412;18.884;2023-03-16T22:51:49;100066.50;;;0.55;59.84
56721;BME280;53183;47.412;18.884;2023-03-16T22:54:19;100067.37;;;0.51;60.68
56721;BME280;53183;47.412;18.884;2023-03-16T22:56:50;100060.47;;;0.50;60.54
56721;BME280;53183;47.412;18.884;2023-03-16T22:59:19;100061.34;;;0.47;61.27
56721;BME280;53183;47.412;18.884;2023-03-16T23:01:48;100061.34;;;0.43;61.23
56721;BME280;53183;47.412;18.884;2023-03-16T23:04:22;100065.69;;;0.44;60.40
56721;BME280;53183;47.412;18.884;2023-03-16T23:06:52;100063.13;;;0.36;60.36
56721;BME280;53183;47.412;18.884;2023-03-16T23:09:20;100070.91;;;0.36;61.18
56721;BME280;53183;47.412;18.884;2023-03-16T23:11:52;100075.22;;;0.33;61.37
56721;BME280;53183;47.412;18.884;2023-03-16T23:14:22;100075.25;;;0.31;61.60
56721;BME280;53183;47.412;18.884;2023-03-16T23:16:50;100070.91;;;0.36;60.90
56721;BME280;53183;47.412;18.884;2023-03-16T23:21:59;100074.37;;;0.26;60.78
56721;BME280;53183;47.412;18.884;2023-03-16T23:24:27;100072.69;;;0.17;60.45
56721;BME280;53183;47.412;18.884;2023-03-16T23:26:55;100077.91;;;0.14;60.48
56721;BME280;53183;47.412;18.884;2023-03-16T23:29:23;100077.91;;;0.11;60.82
56721;BME280;53183;47.412;18.884;2023-03-16T23:31:52;100073.56;;;0.10;60.80
56721;BME280;53183;47.412;18.884;2023-03-16T23:34:22;100077.94;;;0.04;61.05
56721;BME280;53183;47.412;18.884;2023-03-16T23:36:50;100073.56;;;-0.01;60.67
56721;BME280;53183;47.412;18.884;2023-03-16T23:39:18;100079.66;;;0.00;60.89
56721;BME280;53183;47.412;18.884;2023-03-16T23:41:47;100084.84;;;0.02;60.29
56721;BME280;53183;47.412;18.884;2023-03-16T23:44:21;100079.66;;;0.00;59.95
56721;BME280;53183;47.412;18.884;2023-03-16T23:46:49;100085.69;;;0.02;59.96
56721;BME280;53183;47.412;18.884;2023-03-16T23:49:26;100088.31;;;0.01;60.07
56721;BME280;53183;47.412;18.884;2023-03-16T23:51:56;100089.16;;;0.03;61.41
56721;BME280;53183;47.412;18.884;2023-03-16T23:54:27;100090.00;;;0.12;61.61
56721;BME280;53183;47.412;18.884;2023-03-16T23:56:56;100090.88;;;0.16;61.48
56721;BME280;53183;47.412;18.884;2023-03-16T23:59:24;100098.69;;;0.05;60.88
